QFA9871 YMML-YSSY
Flight info
| Callsign | QFA9871 |
|---|---|
| Flight time | 0h 57m |
| Altitude | 33000 |
| Route | DOSEL2/34 DOSEL Y59 RIVET |
| Aircraft | B738/M-SDE2E3FGHIRWXY/LB1 |
Departure
| Time | 2026-05-01 10:46 |
|---|---|
| Airport | Melbourne Airport (YMML) |
Arrival
| Time | 2026-05-01 11:43 |
|---|---|
| Airport | Sydney Kingsford Smith International Airport (YSSY) |
| Time | Latitude | Longitude | Altitude | Speed | Heading |
|---|---|---|---|---|---|
| 2026-05-01 10:20 | -37.67260 | 144.84714 | 442 ft | 0 kts | 171° |
| 2026-05-01 10:31 | -37.67243 | 144.84711 | 442 ft | 2 kts | 171° |
| 2026-05-01 10:32 | -37.67213 | 144.84705 | 442 ft | 2 kts | 171° |
| 2026-05-01 10:32 | -37.67199 | 144.84701 | 442 ft | 1 kts | 175° |
| 2026-05-01 10:32 | -37.67189 | 144.84715 | 442 ft | 1 kts | 266° |
| 2026-05-01 10:33 | -37.67189 | 144.84720 | 442 ft | 0 kts | 263° |
| 2026-05-01 10:37 | -37.67190 | 144.84709 | 442 ft | 3 kts | 262° |
| 2026-05-01 10:37 | -37.67211 | 144.84541 | 442 ft | 14 kts | 265° |
| 2026-05-01 10:37 | -37.67202 | 144.84401 | 442 ft | 15 kts | 266° |
| 2026-05-01 10:38 | -37.67234 | 144.84293 | 442 ft | 12 kts | 208° |
| 2026-05-01 10:38 | -37.67318 | 144.84293 | 442 ft | 11 kts | 172° |
| 2026-05-01 10:38 | -37.67396 | 144.84306 | 442 ft | 10 kts | 172° |
| 2026-05-01 10:38 | -37.67468 | 144.84319 | 442 ft | 9 kts | 172° |
| 2026-05-01 10:39 | -37.67535 | 144.84331 | 442 ft | 9 kts | 171° |
| 2026-05-01 10:39 | -37.67597 | 144.84345 | 442 ft | 8 kts | 170° |
| 2026-05-01 10:39 | -37.67657 | 144.84355 | 442 ft | 9 kts | 172° |
| 2026-05-01 10:39 | -37.67740 | 144.84369 | 442 ft | 13 kts | 179° |
| 2026-05-01 10:40 | -37.67818 | 144.84337 | 442 ft | 9 kts | 219° |
| 2026-05-01 10:40 | -37.67852 | 144.84267 | 442 ft | 8 kts | 255° |
| 2026-05-01 10:40 | -37.67860 | 144.84212 | 442 ft | 2 kts | 261° |
| 2026-05-01 10:40 | -37.67860 | 144.84210 | 442 ft | 0 kts | 261° |
| 2026-05-01 10:42 | -37.67865 | 144.84170 | 442 ft | 10 kts | 262° |
| 2026-05-01 10:42 | -37.67871 | 144.84125 | 442 ft | 0 kts | 262° |
| 2026-05-01 10:44 | -37.67871 | 144.84120 | 442 ft | 2 kts | 263° |
| 2026-05-01 10:44 | -37.67871 | 144.84073 | 442 ft | 7 kts | 276° |
| 2026-05-01 10:45 | -37.67843 | 144.83989 | 442 ft | 11 kts | 314° |
| 2026-05-01 10:45 | -37.67777 | 144.83954 | 442 ft | 8 kts | 350° |
| 2026-05-01 10:45 | -37.67574 | 144.83917 | 442 ft | 65 kts | 352° |
| 2026-05-01 10:45 | -37.66810 | 144.83774 | 443 ft | 143 kts | 352° |
| 2026-05-01 10:46 | -37.65584 | 144.83525 | 676 ft | 187 kts | 352° |
| 2026-05-01 10:46 | -37.64193 | 144.83247 | 1551 ft | 194 kts | 354° |
| 2026-05-01 10:46 | -37.62891 | 144.83012 | 2652 ft | 181 kts | 353° |
| 2026-05-01 10:46 | -37.61518 | 144.82754 | 3067 ft | 201 kts | 353° |
| 2026-05-01 10:47 | -37.59983 | 144.82472 | 3505 ft | 222 kts | 355° |
| 2026-05-01 10:47 | -37.58365 | 144.82690 | 4256 ft | 233 kts | 20° |
| 2026-05-01 10:47 | -37.57837 | 144.82982 | 4605 ft | 234 kts | 24° |
| 2026-05-01 10:48 | -37.53487 | 144.85713 | 6825 ft | 262 kts | 22° |
| 2026-05-01 10:48 | -37.51777 | 144.86758 | 7710 ft | 269 kts | 22° |
| 2026-05-01 10:48 | -37.49996 | 144.87843 | 8595 ft | 275 kts | 21° |
| 2026-05-01 10:48 | -37.48159 | 144.88959 | 9462 ft | 281 kts | 21° |
| 2026-05-01 10:49 | -37.46309 | 144.90079 | 10276 ft | 288 kts | 20° |
| 2026-05-01 10:49 | -37.44386 | 144.91307 | 10759 ft | 310 kts | 27° |
| 2026-05-01 10:49 | -37.42608 | 144.93347 | 11038 ft | 343 kts | 48° |
| 2026-05-01 10:49 | -37.41121 | 144.96016 | 11367 ft | 366 kts | 52° |
| 2026-05-01 10:50 | -37.39575 | 144.98827 | 11838 ft | 380 kts | 51° |
| 2026-05-01 10:50 | -37.37997 | 145.01640 | 12467 ft | 389 kts | 51° |
| 2026-05-01 10:50 | -37.36354 | 145.04558 | 13181 ft | 394 kts | 51° |
| 2026-05-01 10:50 | -37.34674 | 145.07533 | 13880 ft | 400 kts | 51° |
| 2026-05-01 10:51 | -37.33009 | 145.10474 | 14549 ft | 405 kts | 51° |
| 2026-05-01 10:51 | -37.31312 | 145.13463 | 15197 ft | 410 kts | 51° |
| 2026-05-01 10:51 | -37.29570 | 145.16530 | 15841 ft | 416 kts | 50° |
| 2026-05-01 10:51 | -37.27798 | 145.19643 | 16459 ft | 421 kts | 50° |
| 2026-05-01 10:52 | -37.26038 | 145.22729 | 17061 ft | 425 kts | 50° |
| 2026-05-01 10:52 | -37.24250 | 145.25865 | 17662 ft | 430 kts | 50° |
| 2026-05-01 10:52 | -37.22401 | 145.29105 | 18226 ft | 435 kts | 50° |
| 2026-05-01 10:52 | -37.20569 | 145.32312 | 18823 ft | 438 kts | 50° |
| 2026-05-01 10:53 | -37.18695 | 145.35586 | 19354 ft | 443 kts | 50° |
| 2026-05-01 10:53 | -37.16792 | 145.38905 | 19912 ft | 446 kts | 50° |
| 2026-05-01 10:53 | -37.14891 | 145.42212 | 20422 ft | 451 kts | 49° |
| 2026-05-01 10:53 | -37.12955 | 145.45575 | 20956 ft | 454 kts | 49° |
| 2026-05-01 10:54 | -37.11017 | 145.48940 | 21445 ft | 458 kts | 49° |
| 2026-05-01 10:54 | -37.09097 | 145.52271 | 21926 ft | 461 kts | 49° |
| 2026-05-01 10:54 | -37.07120 | 145.55699 | 22395 ft | 465 kts | 49° |
| 2026-05-01 10:54 | -37.05159 | 145.59100 | 22860 ft | 468 kts | 49° |
| 2026-05-01 10:55 | -37.03167 | 145.62552 | 23300 ft | 471 kts | 49° |
| 2026-05-01 10:55 | -37.01177 | 145.66000 | 23743 ft | 474 kts | 49° |
| 2026-05-01 10:55 | -36.99208 | 145.69415 | 24137 ft | 477 kts | 49° |
| 2026-05-01 10:55 | -36.97211 | 145.72875 | 24532 ft | 479 kts | 49° |
| 2026-05-01 10:56 | -36.95183 | 145.76384 | 24919 ft | 482 kts | 49° |
| 2026-05-01 10:56 | -36.93126 | 145.79939 | 25286 ft | 485 kts | 49° |
| 2026-05-01 10:56 | -36.91072 | 145.83484 | 25640 ft | 488 kts | 49° |
| 2026-05-01 10:56 | -36.88969 | 145.87108 | 25995 ft | 491 kts | 49° |
| 2026-05-01 10:57 | -36.86906 | 145.90657 | 26329 ft | 493 kts | 48° |
| 2026-05-01 10:57 | -36.84806 | 145.94266 | 26663 ft | 496 kts | 48° |
| 2026-05-01 10:57 | -36.82708 | 145.97868 | 26979 ft | 499 kts | 48° |
| 2026-05-01 10:57 | -36.80590 | 146.01498 | 27297 ft | 501 kts | 48° |
| 2026-05-01 10:58 | -36.78443 | 146.05176 | 27600 ft | 504 kts | 48° |
| 2026-05-01 10:58 | -36.76282 | 146.08872 | 27904 ft | 506 kts | 48° |
| 2026-05-01 10:58 | -36.74086 | 146.12625 | 28194 ft | 509 kts | 48° |
| 2026-05-01 10:58 | -36.71923 | 146.16318 | 28478 ft | 511 kts | 48° |
| 2026-05-01 10:59 | -36.69739 | 146.20042 | 28748 ft | 513 kts | 48° |
| 2026-05-01 10:59 | -36.67512 | 146.23836 | 29021 ft | 515 kts | 48° |
| 2026-05-01 10:59 | -36.65321 | 146.27563 | 29277 ft | 517 kts | 47° |
| 2026-05-01 10:59 | -36.63095 | 146.31346 | 29553 ft | 519 kts | 47° |
| 2026-05-01 11:00 | -36.60863 | 146.35136 | 29842 ft | 520 kts | 47° |
| 2026-05-01 11:00 | -36.58615 | 146.38951 | 30148 ft | 520 kts | 47° |
| 2026-05-01 11:00 | -36.56381 | 146.42737 | 30456 ft | 521 kts | 47° |
| 2026-05-01 11:00 | -36.54176 | 146.46468 | 30765 ft | 521 kts | 47° |
| 2026-05-01 11:01 | -36.51948 | 146.50232 | 31076 ft | 521 kts | 47° |
| 2026-05-01 11:01 | -36.49713 | 146.54005 | 31390 ft | 520 kts | 47° |
| 2026-05-01 11:01 | -36.47485 | 146.57761 | 31703 ft | 520 kts | 47° |
| 2026-05-01 11:01 | -36.45230 | 146.61556 | 32014 ft | 520 kts | 47° |
| 2026-05-01 11:02 | -36.42999 | 146.65306 | 32322 ft | 519 kts | 46° |
| 2026-05-01 11:02 | -36.40794 | 146.69016 | 32624 ft | 518 kts | 46° |
| 2026-05-01 11:02 | -36.38544 | 146.72797 | 32903 ft | 518 kts | 46° |
| 2026-05-01 11:02 | -36.36332 | 146.76509 | 33166 ft | 517 kts | 46° |
| 2026-05-01 11:03 | -36.34075 | 146.80289 | 33242 ft | 518 kts | 46° |
| 2026-05-01 11:03 | -36.29612 | 146.87759 | 33243 ft | 512 kts | 46° |
| 2026-05-01 11:04 | -36.25213 | 146.95097 | 33297 ft | 511 kts | 46° |
| 2026-05-01 11:04 | -36.20788 | 147.02460 | 33344 ft | 515 kts | 46° |
| 2026-05-01 11:05 | -36.16392 | 147.09766 | 33367 ft | 517 kts | 46° |
| 2026-05-01 11:05 | -36.11959 | 147.17127 | 33372 ft | 518 kts | 46° |
| 2026-05-01 11:06 | -36.07506 | 147.24506 | 33370 ft | 517 kts | 46° |
| 2026-05-01 11:06 | -36.03097 | 147.31793 | 33344 ft | 517 kts | 46° |
| 2026-05-01 11:07 | -35.96567 | 147.42557 | 33344 ft | 517 kts | 46° |
| 2026-05-01 11:07 | -35.92099 | 147.49901 | 33344 ft | 517 kts | 46° |
| 2026-05-01 11:08 | -35.87703 | 147.57111 | 33344 ft | 517 kts | 46° |
| 2026-05-01 11:09 | -35.81105 | 147.67909 | 33343 ft | 516 kts | 46° |
| 2026-05-01 11:09 | -35.76656 | 147.75182 | 33344 ft | 516 kts | 46° |
| 2026-05-01 11:10 | -35.70040 | 147.85959 | 33344 ft | 516 kts | 46° |
| 2026-05-01 11:10 | -35.65618 | 147.93138 | 33344 ft | 516 kts | 46° |
| 2026-05-01 11:11 | -35.61167 | 148.00351 | 33344 ft | 516 kts | 46° |
| 2026-05-01 11:11 | -35.56746 | 148.07500 | 33344 ft | 516 kts | 46° |
| 2026-05-01 11:12 | -35.52312 | 148.14653 | 33344 ft | 516 kts | 46° |
| 2026-05-01 11:12 | -35.47906 | 148.21747 | 33344 ft | 516 kts | 46° |
| 2026-05-01 11:13 | -35.43448 | 148.28908 | 33344 ft | 516 kts | 46° |
| 2026-05-01 11:13 | -35.38972 | 148.36087 | 33344 ft | 516 kts | 46° |
| 2026-05-01 11:14 | -35.34472 | 148.43285 | 33344 ft | 516 kts | 46° |
| 2026-05-01 11:14 | -35.29944 | 148.50514 | 33344 ft | 516 kts | 46° |
| 2026-05-01 11:15 | -35.25495 | 148.57603 | 33344 ft | 516 kts | 46° |
| 2026-05-01 11:15 | -35.21033 | 148.64700 | 33344 ft | 516 kts | 46° |
| 2026-05-01 11:16 | -35.16616 | 148.71719 | 33344 ft | 515 kts | 45° |
| 2026-05-01 11:16 | -35.12210 | 148.78706 | 33344 ft | 515 kts | 45° |
| 2026-05-01 11:17 | -35.07784 | 148.85706 | 33344 ft | 517 kts | 45° |
| 2026-05-01 11:17 | -35.03345 | 148.92709 | 33344 ft | 519 kts | 46° |
| 2026-05-01 11:18 | -34.98902 | 148.99710 | 33344 ft | 521 kts | 46° |
| 2026-05-01 11:18 | -34.94428 | 149.06753 | 33344 ft | 521 kts | 47° |
| 2026-05-01 11:19 | -34.89982 | 149.13744 | 33344 ft | 521 kts | 47° |
| 2026-05-01 11:19 | -34.85520 | 149.20740 | 33344 ft | 520 kts | 47° |
| 2026-05-01 11:20 | -34.81047 | 149.27733 | 33344 ft | 520 kts | 47° |
| 2026-05-01 11:20 | -34.76575 | 149.34706 | 33344 ft | 520 kts | 47° |
| 2026-05-01 11:21 | -34.72615 | 149.42082 | 33346 ft | 527 kts | 57° |
| 2026-05-01 11:21 | -34.69121 | 149.50005 | 33360 ft | 527 kts | 58° |
| 2026-05-01 11:22 | -34.65585 | 149.58041 | 33371 ft | 527 kts | 58° |
| 2026-05-01 11:22 | -34.62046 | 149.66093 | 33370 ft | 527 kts | 58° |
| 2026-05-01 11:23 | -34.58505 | 149.74168 | 33371 ft | 526 kts | 58° |
| 2026-05-01 11:23 | -34.56728 | 149.78214 | 33231 ft | 520 kts | 58° |
| 2026-05-01 11:23 | -34.54984 | 149.82181 | 32191 ft | 525 kts | 58° |
| 2026-05-01 11:24 | -34.53217 | 149.86191 | 31054 ft | 529 kts | 58° |
| 2026-05-01 11:24 | -34.51413 | 149.90292 | 29902 ft | 532 kts | 59° |
| 2026-05-01 11:24 | -34.47871 | 149.98354 | 28272 ft | 521 kts | 59° |
| 2026-05-01 11:25 | -34.46109 | 150.02354 | 27449 ft | 516 kts | 59° |
| 2026-05-01 11:25 | -34.42677 | 150.10127 | 25814 ft | 506 kts | 60° |
| 2026-05-01 11:25 | -34.40964 | 150.13997 | 24990 ft | 500 kts | 60° |
| 2026-05-01 11:26 | -34.39273 | 150.17813 | 24172 ft | 495 kts | 60° |
| 2026-05-01 11:26 | -34.35987 | 150.25214 | 22565 ft | 484 kts | 60° |
| 2026-05-01 11:26 | -34.34378 | 150.28832 | 21772 ft | 478 kts | 60° |
| 2026-05-01 11:27 | -34.32771 | 150.32440 | 20975 ft | 472 kts | 60° |
| 2026-05-01 11:27 | -34.31207 | 150.35948 | 20195 ft | 467 kts | 60° |
| 2026-05-01 11:27 | -34.29637 | 150.39464 | 19407 ft | 461 kts | 60° |
| 2026-05-01 11:27 | -34.28047 | 150.43022 | 18587 ft | 448 kts | 61° |
| 2026-05-01 11:28 | -34.26568 | 150.46343 | 17850 ft | 427 kts | 61° |
| 2026-05-01 11:28 | -34.25156 | 150.49516 | 17127 ft | 410 kts | 61° |
| 2026-05-01 11:28 | -34.23814 | 150.52527 | 16437 ft | 395 kts | 61° |
| 2026-05-01 11:29 | -34.21155 | 150.58472 | 15072 ft | 391 kts | 61° |
| 2026-05-01 11:29 | -34.19854 | 150.61377 | 14401 ft | 381 kts | 61° |
| 2026-05-01 11:29 | -34.17289 | 150.67096 | 13061 ft | 371 kts | 61° |
| 2026-05-01 11:30 | -34.16022 | 150.69917 | 12411 ft | 373 kts | 61° |
| 2026-05-01 11:30 | -34.14738 | 150.72772 | 11982 ft | 371 kts | 61° |
| 2026-05-01 11:30 | -34.13471 | 150.75588 | 11989 ft | 367 kts | 61° |
| 2026-05-01 11:30 | -34.12225 | 150.78355 | 11979 ft | 356 kts | 61° |
| 2026-05-01 11:31 | -34.11018 | 150.81030 | 11981 ft | 342 kts | 61° |
| 2026-05-01 11:31 | -34.09879 | 150.83556 | 11987 ft | 328 kts | 61° |
| 2026-05-01 11:31 | -34.08765 | 150.86032 | 11989 ft | 315 kts | 61° |
| 2026-05-01 11:31 | -34.07699 | 150.88400 | 11990 ft | 305 kts | 61° |
| 2026-05-01 11:32 | -34.06627 | 150.90778 | 11990 ft | 303 kts | 61° |
| 2026-05-01 11:32 | -34.05584 | 150.93089 | 11468 ft | 299 kts | 62° |
| 2026-05-01 11:32 | -34.04538 | 150.95407 | 10845 ft | 296 kts | 62° |
| 2026-05-01 11:32 | -34.03603 | 150.97708 | 10248 ft | 292 kts | 73° |
| 2026-05-01 11:33 | -34.03369 | 151.00131 | 9982 ft | 269 kts | 101° |
| 2026-05-01 11:33 | -34.03955 | 151.02295 | 9762 ft | 247 kts | 124° |
| 2026-05-01 11:33 | -34.04985 | 151.03912 | 9641 ft | 223 kts | 137° |
| 2026-05-01 11:33 | -34.06046 | 151.05249 | 9293 ft | 216 kts | 137° |
| 2026-05-01 11:34 | -34.07074 | 151.06555 | 8925 ft | 210 kts | 137° |
| 2026-05-01 11:34 | -34.08179 | 151.07692 | 8584 ft | 197 kts | 156° |
| 2026-05-01 11:34 | -34.09502 | 151.08160 | 8174 ft | 190 kts | 171° |
| 2026-05-01 11:34 | -34.10825 | 151.08469 | 7728 ft | 188 kts | 169° |
| 2026-05-01 11:35 | -34.12141 | 151.08804 | 7268 ft | 187 kts | 168° |
| 2026-05-01 11:35 | -34.13450 | 151.09142 | 6873 ft | 180 kts | 168° |
| 2026-05-01 11:35 | -34.14678 | 151.09457 | 6455 ft | 177 kts | 167° |
| 2026-05-01 11:35 | -34.15939 | 151.09784 | 6015 ft | 175 kts | 167° |
| 2026-05-01 11:36 | -34.17175 | 151.10103 | 5620 ft | 174 kts | 167° |
| 2026-05-01 11:36 | -34.18385 | 151.10475 | 5281 ft | 170 kts | 154° |
| 2026-05-01 11:36 | -34.19240 | 151.11539 | 5097 ft | 173 kts | 109° |
| 2026-05-01 11:36 | -34.19167 | 151.13054 | 4919 ft | 179 kts | 72° |
| 2026-05-01 11:37 | -34.18801 | 151.14561 | 4688 ft | 177 kts | 81° |
| 2026-05-01 11:37 | -34.18556 | 151.16048 | 4500 ft | 175 kts | 80° |
| 2026-05-01 11:37 | -34.18286 | 151.17567 | 4311 ft | 174 kts | 80° |
| 2026-05-01 11:37 | -34.18015 | 151.19089 | 4117 ft | 174 kts | 80° |
| 2026-05-01 11:38 | -34.17753 | 151.20544 | 3931 ft | 174 kts | 79° |
| 2026-05-01 11:38 | -34.17401 | 151.21982 | 3751 ft | 174 kts | 62° |
| 2026-05-01 11:38 | -34.16484 | 151.22972 | 3561 ft | 179 kts | 21° |
| 2026-05-01 11:38 | -34.15169 | 151.23003 | 3230 ft | 187 kts | 346° |
| 2026-05-01 11:39 | -34.13847 | 151.22586 | 2815 ft | 183 kts | 350° |
| 2026-05-01 11:39 | -34.12627 | 151.22286 | 2742 ft | 176 kts | 350° |
| 2026-05-01 11:39 | -34.11345 | 151.21954 | 2608 ft | 179 kts | 349° |
| 2026-05-01 11:39 | -34.10092 | 151.21626 | 2469 ft | 176 kts | 349° |
| 2026-05-01 11:40 | -34.08815 | 151.21291 | 2294 ft | 176 kts | 349° |
| 2026-05-01 11:40 | -34.07570 | 151.20962 | 2118 ft | 176 kts | 349° |
| 2026-05-01 11:40 | -34.06326 | 151.20636 | 1959 ft | 175 kts | 349° |
| 2026-05-01 11:40 | -34.05157 | 151.20331 | 1819 ft | 156 kts | 349° |
| 2026-05-01 11:41 | -34.04115 | 151.20061 | 1530 ft | 146 kts | 349° |
| 2026-05-01 11:41 | -34.03088 | 151.19795 | 1368 ft | 147 kts | 349° |
| 2026-05-01 11:41 | -34.02061 | 151.19528 | 1167 ft | 147 kts | 349° |
| 2026-05-01 11:41 | -34.01045 | 151.19264 | 967 ft | 146 kts | 349° |
| 2026-05-01 11:42 | -34.00034 | 151.19002 | 767 ft | 146 kts | 349° |
| 2026-05-01 11:42 | -33.99043 | 151.18744 | 572 ft | 145 kts | 349° |
| 2026-05-01 11:42 | -33.98035 | 151.18483 | 376 ft | 145 kts | 348° |
| 2026-05-01 11:42 | -33.97047 | 151.18227 | 173 ft | 143 kts | 348° |
| 2026-05-01 11:43 | -33.96059 | 151.17970 | 22 ft | 138 kts | 347° |
| 2026-05-01 11:43 | -33.95264 | 151.17764 | 18 ft | 86 kts | 348° |
| 2026-05-01 11:43 | -33.94902 | 151.17670 | 22 ft | 26 kts | 349° |
| 2026-05-01 11:44 | -33.94625 | 151.17653 | 25 ft | 16 kts | 9° |
| 2026-05-01 11:44 | -33.94517 | 151.17685 | 26 ft | 8 kts | 15° |
| 2026-05-01 11:44 | -33.94450 | 151.17708 | 25 ft | 15 kts | 16° |
| 2026-05-01 11:44 | -33.94316 | 151.17728 | 22 ft | 21 kts | 348° |
| 2026-05-01 11:45 | -33.94152 | 151.17679 | 15 ft | 25 kts | 345° |
| 2026-05-01 11:45 | -33.93961 | 151.17627 | 9 ft | 28 kts | 348° |
| 2026-05-01 11:45 | -33.93785 | 151.17580 | 9 ft | 23 kts | 348° |
| 2026-05-01 11:45 | -33.93639 | 151.17543 | 9 ft | 18 kts | 348° |
| 2026-05-01 11:46 | -33.93528 | 151.17514 | 9 ft | 14 kts | 348° |
| 2026-05-01 11:46 | -33.93438 | 151.17502 | 12 ft | 10 kts | 4° |
| 2026-05-01 11:46 | -33.93381 | 151.17500 | 14 ft | 6 kts | 352° |
| 2026-05-01 11:46 | -33.93332 | 151.17490 | 16 ft | 9 kts | 348° |
| 2026-05-01 11:47 | -33.93233 | 151.17464 | 18 ft | 18 kts | 348° |
| 2026-05-01 11:47 | -33.93113 | 151.17432 | 20 ft | 17 kts | 349° |
| 2026-05-01 11:47 | -33.93006 | 151.17418 | 22 ft | 12 kts | 25° |
| 2026-05-01 11:47 | -33.92992 | 151.17520 | 22 ft | 13 kts | 100° |
| 2026-05-01 11:48 | -33.93010 | 151.17627 | 22 ft | 11 kts | 101° |
| 2026-05-01 11:48 | -33.93034 | 151.17709 | 22 ft | 8 kts | 118° |
| 2026-05-01 11:48 | -33.93061 | 151.17757 | 22 ft | 5 kts | 156° |
| 2026-05-01 11:48 | -33.93084 | 151.17761 | 22 ft | 2 kts | 181° |
| 2026-05-01 11:49 | -33.93094 | 151.17760 | 22 ft | 1 kts | 185° |
| 2026-05-01 11:49 | -33.93107 | 151.17758 | 22 ft | 1 kts | 187° |
| 2026-05-01 11:49 | -33.93115 | 151.17757 | 22 ft | 1 kts | 188° |
| 2026-05-01 11:49 | -33.93123 | 151.17755 | 22 ft | 1 kts | 189° |
| 2026-05-01 11:50 | -33.93129 | 151.17755 | 22 ft | 0 kts | 189° |